sensor_id;sensor_type;location;lat;lon;timestamp;temperature;humidity
31967;DHT22;18496;52.042;6.812;2022-08-11T00:01:27;28.10;51.10
31967;DHT22;18496;52.042;6.812;2022-08-11T00:03:32;28.10;51.30
31967;DHT22;18496;52.042;6.812;2022-08-11T00:06:09;28.10;51.30
31967;DHT22;18496;52.042;6.812;2022-08-11T00:08:29;28.00;51.40
31967;DHT22;18496;52.042;6.812;2022-08-11T00:10:33;28.00;51.60
31967;DHT22;18496;52.042;6.812;2022-08-11T00:12:37;28.00;51.70
31967;DHT22;18496;52.042;6.812;2022-08-11T00:14:42;27.90;51.60
31967;DHT22;18496;52.042;6.812;2022-08-11T00:16:58;27.80;51.90
31967;DHT22;18496;52.042;6.812;2022-08-11T00:19:02;27.90;52.10
31967;DHT22;18496;52.042;6.812;2022-08-11T00:21:07;27.80;52.10
31967;DHT22;18496;52.042;6.812;2022-08-11T00:23:13;27.80;52.30
31967;DHT22;18496;52.042;6.812;2022-08-11T00:25:19;27.80;52.20
31967;DHT22;18496;52.042;6.812;2022-08-11T00:27:31;27.70;52.20
31967;DHT22;18496;52.042;6.812;2022-08-11T00:29:35;27.80;52.30
31967;DHT22;18496;52.042;6.812;2022-08-11T00:31:46;27.70;52.20
31967;DHT22;18496;52.042;6.812;2022-08-11T00:33:51;27.70;52.30
31967;DHT22;18496;52.042;6.812;2022-08-11T00:35:57;27.70;52.30
31967;DHT22;18496;52.042;6.812;2022-08-11T00:38:02;27.60;52.50
31967;DHT22;18496;52.042;6.812;2022-08-11T00:40:15;27.50;52.50
31967;DHT22;18496;52.042;6.812;2022-08-11T00:42:39;27.60;52.70
31967;DHT22;18496;52.042;6.812;2022-08-11T00:47:17;27.50;52.80
31967;DHT22;18496;52.042;6.812;2022-08-11T00:49:55;27.40;52.90
31967;DHT22;18496;52.042;6.812;2022-08-11T00:57:26;27.30;53.10
31967;DHT22;18496;52.042;6.812;2022-08-11T01:02:11;27.30;53.40
31967;DHT22;18496;52.042;6.812;2022-08-11T01:04:27;27.10;53.40
31967;DHT22;18496;52.042;6.812;2022-08-11T01:09:32;26.90;53.70
31967;DHT22;18496;52.042;6.812;2022-08-11T01:14:10;26.90;54.00
31967;DHT22;18496;52.042;6.812;2022-08-11T01:19:02;26.80;54.10
31967;DHT22;18496;52.042;6.812;2022-08-11T01:31:18;26.60;54.70
31967;DHT22;18496;52.042;6.812;2022-08-11T01:46:51;26.40;55.40
31967;DHT22;18496;52.042;6.812;2022-08-11T01:51:43;26.30;55.50
31967;DHT22;18496;52.042;6.812;2022-08-11T01:54:04;26.30;55.60
31967;DHT22;18496;52.042;6.812;2022-08-11T01:58:41;26.20;55.80
31967;DHT22;18496;52.042;6.812;2022-08-11T02:01:01;26.10;55.70
31967;DHT22;18496;52.042;6.812;2022-08-11T02:03:19;26.20;55.80
31967;DHT22;18496;52.042;6.812;2022-08-11T02:10:26;26.20;55.80
31967;DHT22;18496;52.042;6.812;2022-08-11T02:12:56;26.20;55.80
31967;DHT22;18496;52.042;6.812;2022-08-11T02:15:13;26.10;55.90
31967;DHT22;18496;52.042;6.812;2022-08-11T02:19:55;25.90;56.40
31967;DHT22;18496;52.042;6.812;2022-08-11T02:22:29;25.80;56.60
31967;DHT22;18496;52.042;6.812;2022-08-11T02:25:02;25.70;56.70
31967;DHT22;18496;52.042;6.812;2022-08-11T02:27:15;25.60;56.90
31967;DHT22;18496;52.042;6.812;2022-08-11T02:29:34;25.60;57.10
31967;DHT22;18496;52.042;6.812;2022-08-11T02:31:52;25.50;57.10
31967;DHT22;18496;52.042;6.812;2022-08-11T02:37:13;25.50;57.30
31967;DHT22;18496;52.042;6.812;2022-08-11T02:39:19;25.50;57.40
31967;DHT22;18496;52.042;6.812;2022-08-11T02:41:29;25.50;57.30
31967;DHT22;18496;52.042;6.812;2022-08-11T02:46:23;25.50;57.30
31967;DHT22;18496;52.042;6.812;2022-08-11T02:51:34;25.40;57.40
31967;DHT22;18496;52.042;6.812;2022-08-11T02:56:21;25.40;57.60
31967;DHT22;18496;52.042;6.812;2022-08-11T02:58:52;25.30;57.60
31967;DHT22;18496;52.042;6.812;2022-08-11T03:01:25;25.40;57.60
31967;DHT22;18496;52.042;6.812;2022-08-11T03:04:02;25.30;57.60
31967;DHT22;18496;52.042;6.812;2022-08-11T03:06:16;25.30;57.70
31967;DHT22;18496;52.042;6.812;2022-08-11T03:08:49;25.30;57.80
31967;DHT22;18496;52.042;6.812;2022-08-11T03:11:11;25.20;57.80
31967;DHT22;18496;52.042;6.812;2022-08-11T03:13:42;25.20;57.90
31967;DHT22;18496;52.042;6.812;2022-08-11T03:19:20;25.10;58.20
31967;DHT22;18496;52.042;6.812;2022-08-11T03:21:33;25.10;58.30
31967;DHT22;18496;52.042;6.812;2022-08-11T03:24:07;25.10;58.40
31967;DHT22;18496;52.042;6.812;2022-08-11T03:26:29;25.10;58.30
31967;DHT22;18496;52.042;6.812;2022-08-11T03:31:09;25.00;58.60
31967;DHT22;18496;52.042;6.812;2022-08-11T03:33:28;24.90;58.60
31967;DHT22;18496;52.042;6.812;2022-08-11T03:36:09;24.90;58.70
31967;DHT22;18496;52.042;6.812;2022-08-11T03:38:15;24.90;58.90
31967;DHT22;18496;52.042;6.812;2022-08-11T03:40:51;24.80;58.80
31967;DHT22;18496;52.042;6.812;2022-08-11T03:45:36;24.80;59.10
31967;DHT22;18496;52.042;6.812;2022-08-11T03:53:04;24.80;59.10
31967;DHT22;18496;52.042;6.812;2022-08-11T04:05:34;24.60;59.60
31967;DHT22;18496;52.042;6.812;2022-08-11T04:08:24;24.50;59.70
31967;DHT22;18496;52.042;6.812;2022-08-11T04:28:34;24.20;60.60
31967;DHT22;18496;52.042;6.812;2022-08-11T04:43:47;24.20;60.90
31967;DHT22;18496;52.042;6.812;2022-08-11T04:54:02;24.10;61.30
31967;DHT22;18496;52.042;6.812;2022-08-11T04:56:28;24.10;61.30
31967;DHT22;18496;52.042;6.812;2022-08-11T04:59:12;24.10;61.40
31967;DHT22;18496;52.042;6.812;2022-08-11T05:07:50;24.00;61.70
31967;DHT22;18496;52.042;6.812;2022-08-11T05:14:50;24.00;62.20
31967;DHT22;18496;52.042;6.812;2022-08-11T05:17:39;24.00;62.00
31967;DHT22;18496;52.042;6.812;2022-08-11T05:20:08;24.10;61.90
31967;DHT22;18496;52.042;6.812;2022-08-11T05:22:32;24.10;61.60
31967;DHT22;18496;52.042;6.812;2022-08-11T05:25:13;24.10;61.60
31967;DHT22;18496;52.042;6.812;2022-08-11T05:28:10;24.20;61.70
31967;DHT22;18496;52.042;6.812;2022-08-11T05:30:35;24.20;62.40
31967;DHT22;18496;52.042;6.812;2022-08-11T05:33:09;24.20;61.30
31967;DHT22;18496;52.042;6.812;2022-08-11T05:35:46;24.30;61.40
31967;DHT22;18496;52.042;6.812;2022-08-11T05:37:51;24.30;61.30
31967;DHT22;18496;52.042;6.812;2022-08-11T05:40:16;24.30;61.30
31967;DHT22;18496;52.042;6.812;2022-08-11T05:42:43;24.30;61.10
31967;DHT22;18496;52.042;6.812;2022-08-11T05:45:15;24.30;60.90
31967;DHT22;18496;52.042;6.812;2022-08-11T05:47:37;24.30;61.10
31967;DHT22;18496;52.042;6.812;2022-08-11T05:50:00;24.30;61.00
31967;DHT22;18496;52.042;6.812;2022-08-11T05:52:25;24.40;61.10
31967;DHT22;18496;52.042;6.812;2022-08-11T05:54:50;24.40;61.00
31967;DHT22;18496;52.042;6.812;2022-08-11T05:57:20;24.40;60.60
31967;DHT22;18496;52.042;6.812;2022-08-11T05:59:26;24.60;60.90
31967;DHT22;18496;52.042;6.812;2022-08-11T06:01:32;24.60;60.40
31967;DHT22;18496;52.042;6.812;2022-08-11T06:03:36;24.60;60.30
31967;DHT22;18496;52.042;6.812;2022-08-11T06:06:25;24.60;60.10
31967;DHT22;18496;52.042;6.812;2022-08-11T06:08:31;24.70;60.10
31967;DHT22;18496;52.042;6.812;2022-08-11T06:10:41;24.80;59.70
31967;DHT22;18496;52.042;6.812;2022-08-11T06:12:52;24.90;59.40
31967;DHT22;18496;52.042;6.812;2022-08-11T06:15:00;25.00;59.60
31967;DHT22;18496;52.042;6.812;2022-08-11T06:17:04;25.10;59.10
31967;DHT22;18496;52.042;6.812;2022-08-11T06:19:09;25.10;59.00
31967;DHT22;18496;52.042;6.812;2022-08-11T06:21:14;25.20;58.70
31967;DHT22;18496;52.042;6.812;2022-08-11T06:23:20;25.20;58.80
31967;DHT22;18496;52.042;6.812;2022-08-11T06:25:33;25.30;58.50
31967;DHT22;18496;52.042;6.812;2022-08-11T06:27:39;25.40;58.40
31967;DHT22;18496;52.042;6.812;2022-08-11T06:29:48;25.40;58.40
31967;DHT22;18496;52.042;6.812;2022-08-11T06:31:56;25.40;58.10
31967;DHT22;18496;52.042;6.812;2022-08-11T06:34:08;25.50;58.30
31967;DHT22;18496;52.042;6.812;2022-08-11T06:41:22;25.60;58.10
31967;DHT22;18496;52.042;6.812;2022-08-11T06:43:49;25.60;58.10
31967;DHT22;18496;52.042;6.812;2022-08-11T06:46:02;25.60;57.90
31967;DHT22;18496;52.042;6.812;2022-08-11T06:48:18;25.70;58.10
31967;DHT22;18496;52.042;6.812;2022-08-11T06:50:23;25.70;57.90
31967;DHT22;18496;52.042;6.812;2022-08-11T06:52:46;25.80;57.90
31967;DHT22;18496;52.042;6.812;2022-08-11T06:54:51;25.70;58.00
31967;DHT22;18496;52.042;6.812;2022-08-11T06:57:12;25.80;57.90
31967;DHT22;18496;52.042;6.812;2022-08-11T06:59:35;25.80;58.00
31967;DHT22;18496;52.042;6.812;2022-08-11T07:02:18;25.80;57.80
31967;DHT22;18496;52.042;6.812;2022-08-11T07:04:39;25.90;57.90
31967;DHT22;18496;52.042;6.812;2022-08-11T07:12:40;25.90;58.10
31967;DHT22;18496;52.042;6.812;2022-08-11T07:15:05;25.90;57.60
31967;DHT22;18496;52.042;6.812;2022-08-11T07:17:34;25.90;57.50
31967;DHT22;18496;52.042;6.812;2022-08-11T07:19:42;25.90;57.80
31967;DHT22;18496;52.042;6.812;2022-08-11T07:22:09;26.00;57.60
31967;DHT22;18496;52.042;6.812;2022-08-11T07:24:38;26.00;57.60
31967;DHT22;18496;52.042;6.812;2022-08-11T07:27:05;26.10;57.40
31967;DHT22;18496;52.042;6.812;2022-08-11T07:29:31;26.20;57.60
31967;DHT22;18496;52.042;6.812;2022-08-11T07:31:39;26.30;57.10
31967;DHT22;18496;52.042;6.812;2022-08-11T07:34:15;26.40;56.80
31967;DHT22;18496;52.042;6.812;2022-08-11T07:36:23;26.50;57.20
31967;DHT22;18496;52.042;6.812;2022-08-11T07:38:37;26.50;56.60
31967;DHT22;18496;52.042;6.812;2022-08-11T07:40:48;26.60;55.60
31967;DHT22;18496;52.042;6.812;2022-08-11T07:42:54;26.60;55.40
31967;DHT22;18496;52.042;6.812;2022-08-11T07:44:59;26.60;55.50
31967;DHT22;18496;52.042;6.812;2022-08-11T07:47:24;26.70;55.40
31967;DHT22;18496;52.042;6.812;2022-08-11T07:49:48;26.70;55.20
31967;DHT22;18496;52.042;6.812;2022-08-11T07:52:12;26.80;55.20
31967;DHT22;18496;52.042;6.812;2022-08-11T07:54:35;26.90;55.00
31967;DHT22;18496;52.042;6.812;2022-08-11T07:56:41;26.90;55.00
31967;DHT22;18496;52.042;6.812;2022-08-11T07:58:45;27.00;55.10
31967;DHT22;18496;52.042;6.812;2022-08-11T08:01:08;27.00;54.50
31967;DHT22;18496;52.042;6.812;2022-08-11T08:03:32;27.10;55.00
31967;DHT22;18496;52.042;6.812;2022-08-11T08:05:55;27.10;54.40
31967;DHT22;18496;52.042;6.812;2022-08-11T08:08:17;27.20;54.00
31967;DHT22;18496;52.042;6.812;2022-08-11T08:10:39;27.20;53.70
31967;DHT22;18496;52.042;6.812;2022-08-11T08:13:02;27.30;54.00
31967;DHT22;18496;52.042;6.812;2022-08-11T08:15:26;27.30;53.60
31967;DHT22;18496;52.042;6.812;2022-08-11T08:17:49;27.40;53.40
31967;DHT22;18496;52.042;6.812;2022-08-11T08:19:54;27.40;53.30
31967;DHT22;18496;52.042;6.812;2022-08-11T08:21:58;27.50;53.10
31967;DHT22;18496;52.042;6.812;2022-08-11T08:24:04;27.50;53.00
31967;DHT22;18496;52.042;6.812;2022-08-11T08:26:13;27.60;52.90
31967;DHT22;18496;52.042;6.812;2022-08-11T08:28:36;27.60;52.30
31967;DHT22;18496;52.042;6.812;2022-08-11T08:30:41;27.80;52.50
31967;DHT22;18496;52.042;6.812;2022-08-11T08:32:53;27.80;52.30
31967;DHT22;18496;52.042;6.812;2022-08-11T08:35:00;27.90;52.20
31967;DHT22;18496;52.042;6.812;2022-08-11T08:37:05;27.90;51.60
31967;DHT22;18496;52.042;6.812;2022-08-11T08:39:11;28.00;51.90
31967;DHT22;18496;52.042;6.812;2022-08-11T08:41:35;28.00;53.40
31967;DHT22;18496;52.042;6.812;2022-08-11T08:43:42;28.10;52.60
31967;DHT22;18496;52.042;6.812;2022-08-11T08:45:47;28.20;51.50
31967;DHT22;18496;52.042;6.812;2022-08-11T08:48:02;28.20;51.30
31967;DHT22;18496;52.042;6.812;2022-08-11T08:50:11;28.30;51.00
31967;DHT22;18496;52.042;6.812;2022-08-11T08:52:21;28.40;50.70
31967;DHT22;18496;52.042;6.812;2022-08-11T08:54:33;28.40;50.60
31967;DHT22;18496;52.042;6.812;2022-08-11T08:56:40;28.50;50.60
31967;DHT22;18496;52.042;6.812;2022-08-11T08:58:47;28.50;51.00
31967;DHT22;18496;52.042;6.812;2022-08-11T09:00:53;28.60;50.80
31967;DHT22;18496;52.042;6.812;2022-08-11T09:02:57;28.70;50.20
31967;DHT22;18496;52.042;6.812;2022-08-11T09:05:03;28.70;50.20
31967;DHT22;18496;52.042;6.812;2022-08-11T09:07:10;28.80;50.50
31967;DHT22;18496;52.042;6.812;2022-08-11T09:09:19;28.90;48.90
31967;DHT22;18496;52.042;6.812;2022-08-11T09:11:24;29.00;49.20
31967;DHT22;18496;52.042;6.812;2022-08-11T09:13:48;29.00;48.50
31967;DHT22;18496;52.042;6.812;2022-08-11T09:15:52;29.10;48.90
31967;DHT22;18496;52.042;6.812;2022-08-11T09:17:59;29.20;48.30
31967;DHT22;18496;52.042;6.812;2022-08-11T09:20:22;29.30;48.80
31967;DHT22;18496;52.042;6.812;2022-08-11T09:22:31;29.30;47.60
31967;DHT22;18496;52.042;6.812;2022-08-11T09:24:54;29.40;48.20
31967;DHT22;18496;52.042;6.812;2022-08-11T09:27:19;29.50;46.80
31967;DHT22;18496;52.042;6.812;2022-08-11T09:29:23;29.50;47.10
31967;DHT22;18496;52.042;6.812;2022-08-11T09:31:30;29.60;47.30
31967;DHT22;18496;52.042;6.812;2022-08-11T09:33:36;29.60;47.00
31967;DHT22;18496;52.042;6.812;2022-08-11T09:35:41;29.70;47.00
31967;DHT22;18496;52.042;6.812;2022-08-11T09:37:49;29.80;46.50
31967;DHT22;18496;52.042;6.812;2022-08-11T09:40:12;29.80;45.50
31967;DHT22;18496;52.042;6.812;2022-08-11T09:42:33;29.90;45.60
31967;DHT22;18496;52.042;6.812;2022-08-11T09:44:56;29.90;45.60
31967;DHT22;18496;52.042;6.812;2022-08-11T09:47:00;30.00;45.40
31967;DHT22;18496;52.042;6.812;2022-08-11T09:49:05;30.10;45.50
31967;DHT22;18496;52.042;6.812;2022-08-11T09:51:09;30.20;45.70
31967;DHT22;18496;52.042;6.812;2022-08-11T09:53:19;30.30;44.40
31967;DHT22;18496;52.042;6.812;2022-08-11T09:55:24;30.40;45.10
31967;DHT22;18496;52.042;6.812;2022-08-11T09:57:28;30.40;44.30
31967;DHT22;18496;52.042;6.812;2022-08-11T09:59:51;30.50;44.10
31967;DHT22;18496;52.042;6.812;2022-08-11T10:02:03;30.60;43.70
31967;DHT22;18496;52.042;6.812;2022-08-11T10:04:14;30.60;43.10
31967;DHT22;18496;52.042;6.812;2022-08-11T10:06:18;30.70;43.10
31967;DHT22;18496;52.042;6.812;2022-08-11T10:08:42;30.70;43.20
31967;DHT22;18496;52.042;6.812;2022-08-11T10:10:46;30.80;44.10
31967;DHT22;18496;52.042;6.812;2022-08-11T10:13:15;30.90;43.70
31967;DHT22;18496;52.042;6.812;2022-08-11T10:15:20;31.00;43.40
31967;DHT22;18496;52.042;6.812;2022-08-11T10:17:40;31.00;43.40
31967;DHT22;18496;52.042;6.812;2022-08-11T10:20:06;31.00;43.50
31967;DHT22;18496;52.042;6.812;2022-08-11T10:22:13;31.10;43.60
31967;DHT22;18496;52.042;6.812;2022-08-11T10:24:37;31.20;42.80
31967;DHT22;18496;52.042;6.812;2022-08-11T10:26:59;31.30;42.20
31967;DHT22;18496;52.042;6.812;2022-08-11T10:29:06;31.30;42.50
31967;DHT22;18496;52.042;6.812;2022-08-11T10:31:31;31.40;42.20
31967;DHT22;18496;52.042;6.812;2022-08-11T10:33:54;31.50;42.70
31967;DHT22;18496;52.042;6.812;2022-08-11T10:36:06;31.60;41.30
31967;DHT22;18496;52.042;6.812;2022-08-11T10:38:13;31.60;40.90
31967;DHT22;18496;52.042;6.812;2022-08-11T10:40:20;31.60;41.80
31967;DHT22;18496;52.042;6.812;2022-08-11T10:42:27;31.70;42.00
31967;DHT22;18496;52.042;6.812;2022-08-11T10:44:51;31.70;41.40
31967;DHT22;18496;52.042;6.812;2022-08-11T10:46:55;31.70;39.90
31967;DHT22;18496;52.042;6.812;2022-08-11T10:49:18;31.80;40.80
31967;DHT22;18496;52.042;6.812;2022-08-11T10:51:24;31.80;41.10
31967;DHT22;18496;52.042;6.812;2022-08-11T10:53:49;31.90;40.90
31967;DHT22;18496;52.042;6.812;2022-08-11T10:56:13;32.00;40.60
31967;DHT22;18496;52.042;6.812;2022-08-11T10:58:39;32.00;40.40
31967;DHT22;18496;52.042;6.812;2022-08-11T11:00:52;32.10;40.10
31967;DHT22;18496;52.042;6.812;2022-08-11T11:02:59;32.10;39.80
31967;DHT22;18496;52.042;6.812;2022-08-11T11:05:28;32.20;39.90
31967;DHT22;18496;52.042;6.812;2022-08-11T11:07:39;32.30;40.30
31967;DHT22;18496;52.042;6.812;2022-08-11T11:09:57;32.40;39.80
31967;DHT22;18496;52.042;6.812;2022-08-11T11:12:23;32.50;40.60
31967;DHT22;18496;52.042;6.812;2022-08-11T11:14:47;32.50;38.40
31967;DHT22;18496;52.042;6.812;2022-08-11T11:17:12;32.60;39.40
31967;DHT22;18496;52.042;6.812;2022-08-11T11:19:18;32.60;38.60
31967;DHT22;18496;52.042;6.812;2022-08-11T11:21:26;32.70;39.60
31967;DHT22;18496;52.042;6.812;2022-08-11T11:31:45;33.10;38.90
31967;DHT22;18496;52.042;6.812;2022-08-11T11:36:47;33.30;38.10
31967;DHT22;18496;52.042;6.812;2022-08-11T11:38:51;33.30;38.80
31967;DHT22;18496;52.042;6.812;2022-08-11T11:40:59;33.30;38.30
31967;DHT22;18496;52.042;6.812;2022-08-11T11:43:21;33.40;38.00
31967;DHT22;18496;52.042;6.812;2022-08-11T11:45:25;33.30;37.70
31967;DHT22;18496;52.042;6.812;2022-08-11T11:47:29;33.40;37.50
31967;DHT22;18496;52.042;6.812;2022-08-11T11:49:34;33.40;37.20
31967;DHT22;18496;52.042;6.812;2022-08-11T11:51:42;33.50;37.30
31967;DHT22;18496;52.042;6.812;2022-08-11T11:53:47;33.50;37.30
31967;DHT22;18496;52.042;6.812;2022-08-11T11:55:51;33.50;37.30
31967;DHT22;18496;52.042;6.812;2022-08-11T11:57:57;33.60;35.80
31967;DHT22;18496;52.042;6.812;2022-08-11T12:00:21;33.60;36.30
31967;DHT22;18496;52.042;6.812;2022-08-11T12:02:43;33.70;36.90
31967;DHT22;18496;52.042;6.812;2022-08-11T12:04:47;33.70;36.30
31967;DHT22;18496;52.042;6.812;2022-08-11T12:06:51;33.80;35.60
31967;DHT22;18496;52.042;6.812;2022-08-11T12:09:15;33.80;36.80
31967;DHT22;18496;52.042;6.812;2022-08-11T12:11:26;33.80;36.80
31967;DHT22;18496;52.042;6.812;2022-08-11T12:13:51;33.80;36.60
31967;DHT22;18496;52.042;6.812;2022-08-11T12:15:56;33.90;36.90
31967;DHT22;18496;52.042;6.812;2022-08-11T12:18:00;34.10;37.00
31967;DHT22;18496;52.042;6.812;2022-08-11T12:20:05;34.20;36.70
31967;DHT22;18496;52.042;6.812;2022-08-11T12:22:10;34.30;36.40
31967;DHT22;18496;52.042;6.812;2022-08-11T12:24:34;34.40;37.00
31967;DHT22;18496;52.042;6.812;2022-08-11T12:26:58;34.40;36.50
31967;DHT22;18496;52.042;6.812;2022-08-11T12:29:21;34.50;36.00
31967;DHT22;18496;52.042;6.812;2022-08-11T12:31:32;34.60;36.30
31967;DHT22;18496;52.042;6.812;2022-08-11T12:33:37;34.70;35.80
31967;DHT22;18496;52.042;6.812;2022-08-11T12:35:43;34.80;34.60
31967;DHT22;18496;52.042;6.812;2022-08-11T12:37:52;34.80;35.10
31967;DHT22;18496;52.042;6.812;2022-08-11T12:40:03;35.00;35.50
31967;DHT22;18496;52.042;6.812;2022-08-11T12:42:30;35.00;34.80
31967;DHT22;18496;52.042;6.812;2022-08-11T12:44:53;35.00;34.70
31967;DHT22;18496;52.042;6.812;2022-08-11T12:47:18;35.10;35.10
31967;DHT22;18496;52.042;6.812;2022-08-11T12:49:23;35.10;35.00
31967;DHT22;18496;52.042;6.812;2022-08-11T12:51:51;35.20;34.30
31967;DHT22;18496;52.042;6.812;2022-08-11T12:54:14;35.40;34.00
31967;DHT22;18496;52.042;6.812;2022-08-11T12:56:20;35.50;33.20
31967;DHT22;18496;52.042;6.812;2022-08-11T12:58:44;35.50;33.20
31967;DHT22;18496;52.042;6.812;2022-08-11T13:00:49;35.50;33.70
31967;DHT22;18496;52.042;6.812;2022-08-11T13:03:12;35.70;33.20
31967;DHT22;18496;52.042;6.812;2022-08-11T13:05:35;35.80;32.00
31967;DHT22;18496;52.042;6.812;2022-08-11T13:07:42;35.80;31.60
31967;DHT22;18496;52.042;6.812;2022-08-11T13:09:47;36.00;31.90
31967;DHT22;18496;52.042;6.812;2022-08-11T13:11:51;36.00;32.80
31967;DHT22;18496;52.042;6.812;2022-08-11T13:14:31;36.10;31.80
31967;DHT22;18496;52.042;6.812;2022-08-11T13:16:36;36.10;33.40
31967;DHT22;18496;52.042;6.812;2022-08-11T13:18:59;36.10;32.50
31967;DHT22;18496;52.042;6.812;2022-08-11T13:21:04;36.30;32.80
31967;DHT22;18496;52.042;6.812;2022-08-11T13:23:08;36.40;32.80
31967;DHT22;18496;52.042;6.812;2022-08-11T13:25:14;36.40;31.90
31967;DHT22;18496;52.042;6.812;2022-08-11T13:27:18;36.40;31.70
31967;DHT22;18496;52.042;6.812;2022-08-11T13:29:24;36.40;32.00
31967;DHT22;18496;52.042;6.812;2022-08-11T13:31:28;36.60;32.90
31967;DHT22;18496;52.042;6.812;2022-08-11T13:33:34;36.70;32.50
31967;DHT22;18496;52.042;6.812;2022-08-11T13:35:38;36.80;31.80
31967;DHT22;18496;52.042;6.812;2022-08-11T13:37:44;36.90;31.20
31967;DHT22;18496;52.042;6.812;2022-08-11T13:39:48;37.00;31.90
31967;DHT22;18496;52.042;6.812;2022-08-11T13:41:57;36.90;31.10
31967;DHT22;18496;52.042;6.812;2022-08-11T13:44:07;37.00;32.10
31967;DHT22;18496;52.042;6.812;2022-08-11T13:46:11;37.10;31.70
31967;DHT22;18496;52.042;6.812;2022-08-11T13:48:25;37.10;31.10
31967;DHT22;18496;52.042;6.812;2022-08-11T13:50:31;37.30;30.40
31967;DHT22;18496;52.042;6.812;2022-08-11T13:52:54;37.40;31.20
31967;DHT22;18496;52.042;6.812;2022-08-11T13:54:58;37.40;30.10
31967;DHT22;18496;52.042;6.812;2022-08-11T13:57:06;37.50;31.50
31967;DHT22;18496;52.042;6.812;2022-08-11T13:59:12;37.60;30.60
31967;DHT22;18496;52.042;6.812;2022-08-11T14:01:18;37.70;30.90
31967;DHT22;18496;52.042;6.812;2022-08-11T14:03:25;37.70;30.10
31967;DHT22;18496;52.042;6.812;2022-08-11T14:05:40;37.80;31.20
31967;DHT22;18496;52.042;6.812;2022-08-11T14:07:51;37.90;30.20
31967;DHT22;18496;52.042;6.812;2022-08-11T14:09:57;37.90;29.80
31967;DHT22;18496;52.042;6.812;2022-08-11T14:12:06;37.90;29.50
31967;DHT22;18496;52.042;6.812;2022-08-11T14:14:33;38.00;30.40
31967;DHT22;18496;52.042;6.812;2022-08-11T14:16:41;38.00;31.30
31967;DHT22;18496;52.042;6.812;2022-08-11T14:18:47;38.10;29.70
31967;DHT22;18496;52.042;6.812;2022-08-11T14:20:56;38.10;30.10
31967;DHT22;18496;52.042;6.812;2022-08-11T14:23:27;38.20;30.20
31967;DHT22;18496;52.042;6.812;2022-08-11T14:25:32;38.20;30.00
31967;DHT22;18496;52.042;6.812;2022-08-11T14:27:39;38.20;30.00
31967;DHT22;18496;52.042;6.812;2022-08-11T14:29:45;38.20;30.30
31967;DHT22;18496;52.042;6.812;2022-08-11T14:31:54;38.20;29.70
31967;DHT22;18496;52.042;6.812;2022-08-11T14:34:02;38.30;29.90
31967;DHT22;18496;52.042;6.812;2022-08-11T14:36:07;38.40;29.80
31967;DHT22;18496;52.042;6.812;2022-08-11T14:38:15;38.40;29.80
31967;DHT22;18496;52.042;6.812;2022-08-11T14:40:19;38.50;30.20
31967;DHT22;18496;52.042;6.812;2022-08-11T14:42:41;38.50;29.00
31967;DHT22;18496;52.042;6.812;2022-08-11T14:45:09;38.50;29.60
31967;DHT22;18496;52.042;6.812;2022-08-11T14:47:38;38.60;29.60
31967;DHT22;18496;52.042;6.812;2022-08-11T14:49:43;38.70;29.90
31967;DHT22;18496;52.042;6.812;2022-08-11T14:51:47;38.70;29.50
31967;DHT22;18496;52.042;6.812;2022-08-11T14:53:51;38.80;29.70
31967;DHT22;18496;52.042;6.812;2022-08-11T14:56:15;38.80;29.60
31967;DHT22;18496;52.042;6.812;2022-08-11T14:58:37;38.80;29.40
31967;DHT22;18496;52.042;6.812;2022-08-11T15:00:42;38.80;29.50
31967;DHT22;18496;52.042;6.812;2022-08-11T15:02:47;38.90;29.40
31967;DHT22;18496;52.042;6.812;2022-08-11T15:05:13;38.90;29.80
31967;DHT22;18496;52.042;6.812;2022-08-11T15:07:17;38.90;29.60
31967;DHT22;18496;52.042;6.812;2022-08-11T15:09:27;38.90;29.50
31967;DHT22;18496;52.042;6.812;2022-08-11T15:11:31;38.90;30.00
31967;DHT22;18496;52.042;6.812;2022-08-11T15:13:55;39.00;29.70
31967;DHT22;18496;52.042;6.812;2022-08-11T15:15:59;39.00;29.40
31967;DHT22;18496;52.042;6.812;2022-08-11T15:18:25;39.00;29.80
31967;DHT22;18496;52.042;6.812;2022-08-11T15:20:29;39.10;29.50
31967;DHT22;18496;52.042;6.812;2022-08-11T15:22:51;39.20;30.00
31967;DHT22;18496;52.042;6.812;2022-08-11T15:25:14;39.30;29.60
31967;DHT22;18496;52.042;6.812;2022-08-11T15:27:19;39.30;29.60
31967;DHT22;18496;52.042;6.812;2022-08-11T15:29:42;39.40;29.20
31967;DHT22;18496;52.042;6.812;2022-08-11T15:32:07;39.50;30.40
31967;DHT22;18496;52.042;6.812;2022-08-11T15:34:26;39.50;28.50
31967;DHT22;18496;52.042;6.812;2022-08-11T15:36:56;39.40;28.40
31967;DHT22;18496;52.042;6.812;2022-08-11T15:39:22;39.30;29.70
31967;DHT22;18496;52.042;6.812;2022-08-11T15:41:38;39.30;29.60
31967;DHT22;18496;52.042;6.812;2022-08-11T15:44:02;39.40;29.60
31967;DHT22;18496;52.042;6.812;2022-08-11T15:46:30;39.50;28.90
31967;DHT22;18496;52.042;6.812;2022-08-11T15:48:44;39.50;28.70
31967;DHT22;18496;52.042;6.812;2022-08-11T15:50:53;39.60;28.60
31967;DHT22;18496;52.042;6.812;2022-08-11T15:53:04;39.60;28.40
31967;DHT22;18496;52.042;6.812;2022-08-11T15:55:10;39.60;28.40
31967;DHT22;18496;52.042;6.812;2022-08-11T15:57:16;39.60;28.20
31967;DHT22;18496;52.042;6.812;2022-08-11T15:59:39;39.60;28.30
31967;DHT22;18496;52.042;6.812;2022-08-11T16:02:03;39.60;28.10
31967;DHT22;18496;52.042;6.812;2022-08-11T16:04:28;39.60;28.40
31967;DHT22;18496;52.042;6.812;2022-08-11T16:06:44;39.60;28.80
31967;DHT22;18496;52.042;6.812;2022-08-11T16:08:51;39.60;29.20
31967;DHT22;18496;52.042;6.812;2022-08-11T16:10:59;39.70;29.30
31967;DHT22;18496;52.042;6.812;2022-08-11T16:13:05;39.70;29.20
31967;DHT22;18496;52.042;6.812;2022-08-11T16:15:09;39.80;28.80
31967;DHT22;18496;52.042;6.812;2022-08-11T16:17:39;39.80;28.40
31967;DHT22;18496;52.042;6.812;2022-08-11T16:19:45;39.90;28.00
31967;DHT22;18496;52.042;6.812;2022-08-11T16:21:51;39.80;28.30
31967;DHT22;18496;52.042;6.812;2022-08-11T16:23:57;39.80;27.90
31967;DHT22;18496;52.042;6.812;2022-08-11T16:26:04;39.70;27.60
31967;DHT22;18496;52.042;6.812;2022-08-11T16:28:12;39.70;27.60
31967;DHT22;18496;52.042;6.812;2022-08-11T16:30:19;39.80;27.40
31967;DHT22;18496;52.042;6.812;2022-08-11T16:32:24;39.70;27.90
31967;DHT22;18496;52.042;6.812;2022-08-11T16:34:30;39.70;27.50
31967;DHT22;18496;52.042;6.812;2022-08-11T16:36:55;39.70;27.20
31967;DHT22;18496;52.042;6.812;2022-08-11T16:39:19;39.70;27.40
31967;DHT22;18496;52.042;6.812;2022-08-11T16:41:26;39.70;26.90
31967;DHT22;18496;52.042;6.812;2022-08-11T16:43:49;39.70;26.80
31967;DHT22;18496;52.042;6.812;2022-08-11T16:46:14;39.70;26.50
31967;DHT22;18496;52.042;6.812;2022-08-11T16:48:38;39.60;27.10
31967;DHT22;18496;52.042;6.812;2022-08-11T16:50:43;39.60;26.70
31967;DHT22;18496;52.042;6.812;2022-08-11T16:52:48;39.60;27.00